createdAt,value
2019-06-27T00:00:25.075Z,24.20
2019-06-27T00:02:53.804Z,24.20
2019-06-27T00:05:23.578Z,24.20
2019-06-27T00:07:52.259Z,24.20
2019-06-27T00:10:21.481Z,24.20
2019-06-27T00:12:50.168Z,24.20
2019-06-27T00:15:18.873Z,24.20
2019-06-27T00:17:47.568Z,24.20
2019-06-27T00:20:16.322Z,24.20
2019-06-27T00:22:45.093Z,24.20
2019-06-27T00:25:14.122Z,24.10
2019-06-27T00:27:42.808Z,24.10
2019-06-27T00:30:11.570Z,24.20
2019-06-27T00:32:40.690Z,24.10
2019-06-27T00:35:09.374Z,24.10
2019-06-27T00:37:38.058Z,24.20
2019-06-27T00:40:06.733Z,24.10
2019-06-27T00:42:35.421Z,24.10
2019-06-27T00:45:04.121Z,24.10
2019-06-27T00:47:32.830Z,24.10
2019-06-27T00:50:01.596Z,24.10
2019-06-27T00:52:30.693Z,24.10
2019-06-27T00:54:59.463Z,24.10
2019-06-27T00:57:28.154Z,24.10
2019-06-27T00:59:56.825Z,24.10
2019-06-27T01:02:25.523Z,24.10
2019-06-27T01:04:54.570Z,24.10
2019-06-27T01:07:23.263Z,24.10
2019-06-27T01:09:52.016Z,24.10
2019-06-27T01:12:20.969Z,24.10
2019-06-27T01:14:49.677Z,24.10
2019-06-27T01:17:18.385Z,24.10
2019-06-27T01:19:47.153Z,24.00
2019-06-27T01:22:15.848Z,24.00
2019-06-27T01:24:44.537Z,24.10
2019-06-27T01:27:28.882Z,24.10
2019-06-27T01:29:44.060Z,24.00
2019-06-27T01:32:13.089Z,24.10
2019-06-27T01:34:41.778Z,24.10
2019-06-27T01:39:45.046Z,24.10
2019-06-27T01:42:14.354Z,24.00
2019-06-27T01:44:53.659Z,24.00
2019-06-27T01:47:22.447Z,24.10
2019-06-27T01:49:51.199Z,24.00
2019-06-27T01:52:19.901Z,24.00
2019-06-27T01:54:48.606Z,24.00
2019-06-27T01:57:17.411Z,24.00
2019-06-27T01:59:46.106Z,24.00
2019-06-27T02:02:14.941Z,24.10
2019-06-27T02:04:43.750Z,24.00
2019-06-27T02:07:13.383Z,24.00
2019-06-27T02:09:42.138Z,24.00
2019-06-27T02:12:11.150Z,24.00
2019-06-27T02:14:39.887Z,24.00
2019-06-27T02:17:09.036Z,24.00
2019-06-27T02:19:37.918Z,24.00
2019-06-27T02:22:06.727Z,24.00
2019-06-27T02:24:35.826Z,24.00
2019-06-27T02:27:04.542Z,24.00
2019-06-27T02:29:33.248Z,24.00
2019-06-27T02:32:01.978Z,24.00
2019-06-27T02:34:31.170Z,24.00
2019-06-27T02:37:00.257Z,24.00
2019-06-27T02:39:28.958Z,24.00
2019-06-27T02:41:57.753Z,24.00
2019-06-27T02:44:26.629Z,24.00
2019-06-27T02:46:55.315Z,24.00
2019-06-27T02:49:24.014Z,24.00
2019-06-27T02:51:52.701Z,24.00
2019-06-27T02:54:21.523Z,24.00
2019-06-27T02:56:50.223Z,24.00
2019-06-27T02:59:19.558Z,24.00
2019-06-27T03:01:48.302Z,24.00
2019-06-27T03:04:17.291Z,24.00
2019-06-27T03:06:46.023Z,24.00
2019-06-27T03:09:14.798Z,24.00
2019-06-27T03:11:43.493Z,24.00
2019-06-27T03:14:12.200Z,24.00
2019-06-27T03:16:42.325Z,24.00
2019-06-27T03:19:11.033Z,24.00
2019-06-27T03:21:39.803Z,24.00
2019-06-27T03:24:08.618Z,23.90
2019-06-27T03:26:37.526Z,23.90
2019-06-27T03:29:06.383Z,24.00
2019-06-27T03:31:35.069Z,23.90
2019-06-27T03:34:03.815Z,23.90
2019-06-27T03:36:32.504Z,23.90
2019-06-27T03:39:01.267Z,23.90
2019-06-27T03:41:31.414Z,23.90
2019-06-27T03:44:00.088Z,23.90
2019-06-27T03:46:29.178Z,23.90
2019-06-27T03:48:57.921Z,23.90
2019-06-27T03:51:26.594Z,23.90
2019-06-27T03:53:55.282Z,23.90
2019-06-27T03:56:23.966Z,23.90
2019-06-27T03:59:10.725Z,23.90
2019-06-27T04:01:23.225Z,23.90
2019-06-27T04:03:52.001Z,23.90
2019-06-27T04:06:20.694Z,23.90
2019-06-27T04:08:49.417Z,23.90
2019-06-27T04:11:18.097Z,23.90
2019-06-27T04:13:46.811Z,23.90
2019-06-27T04:16:15.749Z,23.90
2019-06-27T04:18:44.766Z,23.90
2019-06-27T04:21:13.445Z,23.90
2019-06-27T04:23:42.241Z,23.50
2019-06-27T04:26:11.098Z,23.20
2019-06-27T04:28:39.773Z,23.00
2019-06-27T04:31:09.610Z,23.00
2019-06-27T04:33:38.347Z,23.00
2019-06-27T04:36:07.029Z,22.90
2019-06-27T04:38:35.710Z,22.90
2019-06-27T04:41:04.529Z,22.80
2019-06-27T04:43:33.213Z,22.80
2019-06-27T04:46:01.900Z,22.80
2019-06-27T04:48:30.585Z,22.70
2019-06-27T04:50:59.279Z,22.70
2019-06-27T04:53:28.286Z,22.80
2019-06-27T04:55:57.538Z,22.90
2019-06-27T04:58:26.274Z,23.00
2019-06-27T05:00:54.982Z,23.10
2019-06-27T05:03:25.744Z,23.20
2019-06-27T05:05:54.483Z,23.30
2019-06-27T05:08:23.163Z,23.40
2019-06-27T05:10:51.948Z,23.40
2019-06-27T05:13:20.736Z,23.50
2019-06-27T05:15:49.417Z,23.50
2019-06-27T05:18:18.115Z,23.50
2019-06-27T05:20:46.889Z,23.60
2019-06-27T05:23:15.567Z,23.60
2019-06-27T05:25:44.358Z,23.60
2019-06-27T05:28:13.109Z,23.60
2019-06-27T05:30:42.198Z,23.60
2019-06-27T05:33:10.876Z,23.60
2019-06-27T05:35:39.678Z,23.60
2019-06-27T05:38:08.361Z,23.60
2019-06-27T05:40:37.118Z,23.60
2019-06-27T05:43:05.876Z,23.50
2019-06-27T05:45:34.587Z,23.60
2019-06-27T05:48:03.341Z,23.60
2019-06-27T05:50:32.415Z,23.60
2019-06-27T05:53:01.356Z,23.60
2019-06-27T05:55:30.496Z,23.50
2019-06-27T05:57:59.270Z,23.60
2019-06-27T06:00:29.659Z,23.60
2019-06-27T06:02:58.901Z,23.60
2019-06-27T06:05:27.684Z,23.60
2019-06-27T06:07:56.373Z,23.70
2019-06-27T06:10:25.077Z,23.60
2019-06-27T06:12:54.127Z,23.60
2019-06-27T06:15:22.800Z,23.60
2019-06-27T06:17:51.552Z,23.60
2019-06-27T06:20:20.239Z,23.60
2019-06-27T06:22:48.992Z,23.70
2019-06-27T06:25:18.102Z,23.60
2019-06-27T06:27:46.965Z,23.60
2019-06-27T06:30:16.202Z,23.60
2019-06-27T06:32:45.800Z,23.70
2019-06-27T06:35:14.860Z,23.60
2019-06-27T06:37:43.613Z,23.60
2019-06-27T06:40:12.289Z,23.70
2019-06-27T06:42:41.043Z,23.80
2019-06-27T06:45:09.798Z,23.70
2019-06-27T06:47:39.230Z,23.70
2019-06-27T06:50:07.988Z,23.70
2019-06-27T06:52:36.985Z,23.70
2019-06-27T06:55:05.864Z,23.70
2019-06-27T06:57:34.877Z,23.70
2019-06-27T07:00:03.691Z,23.70
2019-06-27T07:02:32.469Z,23.70
2019-06-27T07:05:01.550Z,23.70
2019-06-27T07:07:30.352Z,23.70
2019-06-27T07:09:59.301Z,23.80
2019-06-27T07:12:28.989Z,23.80
2019-06-27T07:14:58.174Z,23.90
2019-06-27T07:17:26.974Z,23.90
2019-06-27T07:19:57.593Z,23.90
2019-06-27T07:22:26.438Z,23.80
2019-06-27T07:24:55.202Z,23.80
2019-06-27T07:27:24.335Z,23.80
2019-06-27T07:29:53.448Z,23.90
2019-06-27T07:32:23.846Z,23.90
2019-06-27T07:34:53.047Z,23.90
2019-06-27T07:37:21.783Z,23.90
2019-06-27T07:39:53.973Z,23.90
2019-06-27T07:42:23.352Z,23.90
2019-06-27T07:44:52.589Z,23.90
2019-06-27T07:47:21.352Z,23.90
2019-06-27T07:49:50.587Z,23.80
2019-06-27T07:52:20.934Z,23.90
2019-06-27T07:54:51.499Z,23.90
2019-06-27T07:57:20.337Z,23.90
2019-06-27T07:59:49.840Z,23.90
2019-06-27T08:02:21.056Z,23.90
2019-06-27T08:04:51.236Z,23.90
2019-06-27T08:07:21.343Z,23.90
2019-06-27T08:09:50.269Z,23.90
2019-06-27T08:12:19.309Z,23.90
2019-06-27T08:14:47.981Z,23.90
2019-06-27T08:17:16.739Z,23.90
2019-06-27T08:19:45.422Z,23.90
2019-06-27T08:22:14.475Z,23.90
2019-06-27T08:24:43.265Z,24.00
2019-06-27T08:27:12.238Z,24.00
2019-06-27T08:29:40.969Z,24.00
2019-06-27T08:32:09.915Z,24.00
2019-06-27T08:34:38.594Z,24.10
2019-06-27T08:37:07.269Z,24.10
2019-06-27T08:39:35.968Z,24.00
2019-06-27T08:42:04.648Z,24.10
2019-06-27T08:44:33.757Z,24.00
2019-06-27T08:47:02.509Z,24.00
2019-06-27T08:49:31.261Z,24.00
2019-06-27T08:52:00.239Z,24.00
2019-06-27T08:54:28.917Z,24.00
2019-06-27T08:56:58.419Z,23.90
2019-06-27T08:59:28.128Z,23.90
2019-06-27T09:02:07.802Z,24.00
2019-06-27T09:04:27.250Z,23.90
2019-06-27T09:06:56.007Z,23.90
2019-06-27T09:09:24.692Z,24.00
2019-06-27T09:11:53.459Z,24.00
2019-06-27T09:14:22.128Z,24.00
2019-06-27T09:16:50.929Z,24.00
2019-06-27T09:19:19.834Z,24.10
2019-06-27T09:21:48.579Z,24.10
2019-06-27T09:24:17.256Z,24.00
2019-06-27T09:26:45.984Z,24.00
2019-06-27T09:29:15.006Z,24.00
2019-06-27T09:31:43.790Z,24.10
2019-06-27T09:34:12.503Z,24.10
2019-06-27T09:36:41.252Z,24.10
2019-06-27T09:39:09.931Z,24.00
2019-06-27T09:41:38.945Z,24.10
2019-06-27T09:44:07.617Z,24.10
2019-06-27T09:46:36.296Z,24.10
2019-06-27T09:49:06.058Z,24.10
2019-06-27T09:51:34.746Z,24.10
2019-06-27T09:54:03.445Z,24.10
2019-06-27T09:56:32.439Z,24.10
2019-06-27T09:59:01.252Z,24.10
2019-06-27T10:01:30.007Z,24.10
2019-06-27T10:03:58.685Z,24.10
2019-06-27T10:06:27.744Z,24.20
2019-06-27T10:08:56.891Z,24.10
2019-06-27T10:11:25.785Z,24.20
2019-06-27T10:13:54.474Z,24.10
2019-06-27T10:16:23.157Z,24.20
2019-06-27T10:18:51.869Z,24.20
2019-06-27T10:21:20.546Z,24.20
2019-06-27T10:23:49.249Z,24.20
2019-06-27T10:26:18.302Z,24.20
2019-06-27T10:28:47.116Z,24.20
2019-06-27T10:31:15.800Z,24.30
2019-06-27T10:33:44.552Z,24.30
2019-06-27T10:36:13.233Z,24.30
2019-06-27T10:38:42.385Z,24.30
2019-06-27T10:41:11.390Z,24.30
2019-06-27T10:43:40.373Z,24.30
2019-06-27T10:46:09.797Z,24.30
2019-06-27T10:48:38.557Z,24.30
2019-06-27T10:51:07.560Z,24.40
2019-06-27T10:53:36.266Z,24.40
2019-06-27T10:56:05.242Z,24.40
2019-06-27T10:58:33.998Z,24.40
2019-06-27T11:01:02.685Z,24.40
2019-06-27T11:03:31.717Z,24.40
2019-06-27T11:06:00.397Z,24.40
2019-06-27T11:08:29.149Z,24.30
2019-06-27T11:10:57.822Z,24.40
2019-06-27T11:13:26.967Z,24.40
2019-06-27T11:15:55.745Z,24.40
2019-06-27T11:18:24.741Z,24.40
2019-06-27T11:20:53.878Z,24.40
2019-06-27T11:23:22.935Z,24.40
2019-06-27T11:25:51.930Z,24.40
2019-06-27T11:28:20.701Z,24.40
2019-06-27T11:30:49.377Z,24.40
2019-06-27T11:33:31.951Z,24.40
2019-06-27T11:35:49.429Z,24.30
2019-06-27T11:38:19.292Z,24.30
2019-06-27T11:40:47.961Z,24.30
2019-06-27T11:43:17.028Z,24.30
2019-06-27T11:45:46.698Z,24.30
2019-06-27T11:48:15.564Z,24.30
2019-06-27T11:50:44.263Z,24.30
2019-06-27T11:53:13.006Z,24.30
2019-06-27T11:55:42.104Z,24.30
2019-06-27T11:58:10.860Z,24.40
2019-06-27T12:00:39.700Z,24.40
2019-06-27T12:03:08.450Z,24.40
2019-06-27T12:05:37.469Z,24.50
2019-06-27T12:08:09.986Z,24.50
2019-06-27T12:10:37.959Z,24.50
2019-06-27T12:13:07.112Z,24.50
2019-06-27T12:15:35.943Z,24.50
2019-06-27T12:18:04.677Z,24.50
2019-06-27T12:20:33.711Z,24.50
2019-06-27T12:23:02.752Z,24.50
2019-06-27T12:25:32.652Z,24.50
2019-06-27T12:28:01.986Z,24.50
2019-06-27T12:30:31.655Z,24.50
2019-06-27T12:33:01.318Z,24.50
2019-06-27T12:35:30.611Z,24.50
2019-06-27T12:37:59.783Z,24.60
2019-06-27T12:40:28.979Z,24.60
2019-06-27T12:42:57.662Z,24.60
2019-06-27T12:45:26.678Z,24.60
2019-06-27T12:47:55.349Z,24.60
2019-06-27T12:50:24.334Z,24.60
2019-06-27T12:52:53.814Z,24.60
2019-06-27T12:55:23.246Z,24.60
2019-06-27T12:57:52.333Z,24.60
2019-06-27T13:00:21.341Z,24.70
2019-06-27T13:02:50.429Z,24.60
2019-06-27T13:05:20.626Z,24.60
2019-06-27T13:07:51.625Z,24.60
2019-06-27T13:10:22.244Z,24.60
2019-06-27T13:12:51.401Z,24.60
2019-06-27T13:15:20.577Z,24.70
2019-06-27T13:17:49.858Z,24.70
2019-06-27T13:20:19.211Z,24.70
2019-06-27T13:22:48.454Z,24.70
2019-06-27T13:25:17.619Z,24.60
2019-06-27T13:27:46.708Z,24.70
2019-06-27T13:30:16.273Z,24.70
2019-06-27T13:32:45.667Z,24.70
2019-06-27T13:35:14.449Z,24.70
2019-06-27T13:37:44.215Z,24.70
2019-06-27T13:40:13.807Z,24.70
2019-06-27T13:42:43.351Z,24.70
2019-06-27T13:45:12.536Z,24.70
2019-06-27T13:47:41.627Z,24.70
2019-06-27T13:50:10.827Z,24.80
2019-06-27T13:52:39.496Z,24.70
2019-06-27T13:55:10.441Z,24.70
2019-06-27T13:57:39.774Z,24.70
2019-06-27T14:00:08.558Z,24.70
2019-06-27T14:02:37.628Z,24.80
2019-06-27T14:05:06.561Z,24.70
2019-06-27T14:07:35.245Z,24.80
2019-06-27T14:10:04.609Z,24.80
2019-06-27T14:12:33.280Z,24.80
2019-06-27T14:15:02.414Z,24.80
2019-06-27T14:17:31.108Z,24.80
2019-06-27T14:20:00.275Z,24.80
2019-06-27T14:22:33.214Z,24.80
2019-06-27T14:25:00.173Z,24.90
2019-06-27T14:27:29.955Z,24.90
2019-06-27T14:29:59.552Z,24.90
2019-06-27T14:32:28.746Z,24.90
2019-06-27T14:35:14.086Z,24.90
2019-06-27T14:37:28.824Z,24.90
2019-06-27T14:39:57.605Z,25.00
2019-06-27T14:42:26.629Z,25.00
2019-06-27T14:44:56.157Z,24.90
2019-06-27T14:47:24.929Z,24.90
2019-06-27T14:49:53.737Z,25.00
2019-06-27T14:52:22.515Z,24.90
2019-06-27T14:54:51.341Z,25.00
2019-06-27T14:57:20.102Z,25.00
2019-06-27T14:59:48.857Z,25.00
2019-06-27T15:02:17.862Z,25.00
2019-06-27T15:04:46.615Z,25.00
2019-06-27T15:07:15.365Z,25.00
2019-06-27T15:09:44.042Z,25.00
2019-06-27T15:12:12.800Z,25.00
2019-06-27T15:14:41.476Z,25.00
2019-06-27T15:17:10.333Z,25.00
2019-06-27T15:19:39.281Z,24.90
2019-06-27T15:22:08.574Z,24.90
2019-06-27T15:24:38.003Z,24.90
2019-06-27T15:27:06.809Z,24.90
2019-06-27T15:29:35.495Z,24.80
2019-06-27T15:32:04.445Z,24.90
2019-06-27T15:34:33.136Z,24.90
2019-06-27T15:37:02.445Z,24.90
2019-06-27T15:39:31.134Z,24.90
2019-06-27T15:42:00.215Z,24.90
2019-06-27T15:44:29.057Z,24.90
2019-06-27T15:47:01.501Z,24.90
2019-06-27T15:49:30.603Z,24.90
2019-06-27T15:51:59.945Z,24.90
2019-06-27T15:54:28.941Z,24.90
2019-06-27T15:56:57.921Z,25.00
2019-06-27T15:59:27.163Z,25.00
2019-06-27T16:01:56.014Z,25.00
2019-06-27T16:04:33.661Z,25.00
2019-06-27T16:06:56.212Z,25.00
2019-06-27T16:09:25.216Z,25.00
2019-06-27T16:11:54.035Z,25.00
2019-06-27T16:14:25.301Z,25.10
2019-06-27T16:16:54.514Z,25.10
2019-06-27T16:19:23.869Z,25.10
2019-06-27T16:21:53.388Z,25.10
2019-06-27T16:24:23.227Z,25.10
2019-06-27T16:26:52.329Z,25.20
2019-06-27T16:29:22.076Z,25.10
2019-06-27T16:31:51.060Z,25.10
2019-06-27T16:34:20.143Z,25.10
2019-06-27T16:36:49.143Z,25.10
2019-06-27T16:39:17.877Z,25.10
2019-06-27T16:41:46.901Z,25.10
2019-06-27T16:44:15.591Z,25.10
2019-06-27T16:46:44.682Z,25.10
2019-06-27T16:49:13.357Z,25.10
2019-06-27T16:51:42.463Z,25.10
2019-06-27T16:54:12.212Z,25.10
2019-06-27T16:56:41.160Z,25.10
2019-06-27T16:59:09.838Z,25.10
2019-06-27T17:01:38.570Z,25.00
2019-06-27T17:04:07.883Z,25.00
2019-06-27T17:06:42.131Z,25.00
2019-06-27T17:09:07.507Z,25.00
2019-06-27T17:11:36.181Z,25.00
2019-06-27T17:14:04.867Z,25.00
2019-06-27T17:16:33.573Z,25.00
2019-06-27T17:19:02.329Z,25.00
2019-06-27T17:21:31.276Z,25.10
2019-06-27T17:23:59.953Z,25.10
2019-06-27T17:26:28.652Z,25.10
2019-06-27T17:28:57.336Z,25.10
2019-06-27T17:31:26.341Z,25.10
2019-06-27T17:33:55.016Z,25.00
2019-06-27T17:36:23.702Z,25.00
2019-06-27T17:38:52.704Z,25.00
2019-06-27T17:41:21.594Z,25.00
2019-06-27T17:43:50.456Z,25.00
2019-06-27T17:46:19.649Z,25.00
2019-06-27T17:48:49.161Z,25.00
2019-06-27T17:51:18.776Z,25.00
2019-06-27T17:53:47.869Z,25.00
2019-06-27T17:56:16.760Z,24.90
2019-06-27T17:58:45.868Z,24.90
2019-06-27T18:01:15.199Z,24.90
2019-06-27T18:03:44.844Z,24.90
2019-06-27T18:06:13.636Z,24.80
2019-06-27T18:08:44.438Z,24.80
2019-06-27T18:11:13.999Z,24.80
2019-06-27T18:13:44.415Z,24.80
2019-06-27T18:16:15.421Z,24.80
2019-06-27T18:18:44.165Z,24.80
2019-06-27T18:21:13.503Z,24.80
2019-06-27T18:23:44.389Z,24.80
2019-06-27T18:26:14.425Z,24.80
2019-06-27T18:28:45.450Z,24.90
2019-06-27T18:31:14.186Z,24.90
2019-06-27T18:33:42.870Z,24.90
2019-06-27T18:36:11.600Z,25.00
2019-06-27T18:38:40.893Z,25.10
2019-06-27T18:41:12.588Z,25.10
2019-06-27T18:43:39.945Z,25.20
2019-06-27T18:46:08.688Z,25.30
2019-06-27T18:48:37.655Z,25.30
2019-06-27T18:51:07.187Z,25.20
2019-06-27T18:53:36.121Z,25.20
2019-06-27T18:56:04.978Z,25.10
2019-06-27T18:58:33.648Z,25.10
2019-06-27T19:01:02.325Z,25.20
2019-06-27T19:03:31.048Z,25.20
2019-06-27T19:05:59.777Z,25.20
2019-06-27T19:08:28.790Z,25.20
2019-06-27T19:10:57.492Z,25.20
2019-06-27T19:13:26.526Z,25.20
2019-06-27T19:15:55.257Z,25.20
2019-06-27T19:18:42.005Z,25.10
2019-06-27T19:21:16.615Z,25.10
2019-06-27T19:24:07.497Z,25.10
2019-06-27T19:26:36.701Z,25.00
2019-06-27T19:29:05.545Z,25.00
2019-06-27T19:31:34.294Z,25.00
2019-06-27T19:34:02.980Z,24.90
2019-06-27T19:36:31.945Z,24.90
2019-06-27T19:39:00.961Z,24.90
2019-06-27T19:41:31.264Z,24.90
2019-06-27T19:43:59.953Z,24.90
2019-06-27T19:46:28.974Z,24.90
2019-06-27T19:48:57.649Z,24.80
2019-06-27T19:51:26.617Z,24.70
2019-06-27T19:53:58.001Z,24.70
2019-06-27T19:56:26.037Z,24.60
2019-06-27T19:58:54.892Z,24.60
2019-06-27T20:01:23.568Z,24.60
2019-06-27T20:03:52.276Z,24.50
2019-06-27T20:06:20.960Z,24.50
2019-06-27T20:08:49.973Z,24.50
2019-06-27T20:11:18.650Z,24.50
2019-06-27T20:13:47.353Z,24.50
2019-06-27T20:16:16.189Z,24.50
2019-06-27T20:18:46.037Z,24.50
2019-06-27T20:21:14.779Z,24.50
2019-06-27T20:23:43.933Z,24.50
2019-06-27T20:26:12.604Z,24.50
2019-06-27T20:28:41.612Z,24.50
2019-06-27T20:31:10.601Z,24.50
2019-06-27T20:33:39.333Z,24.50
2019-06-27T20:36:08.017Z,24.50
2019-06-27T20:38:37.183Z,24.50
2019-06-27T20:41:05.939Z,24.50
2019-06-27T20:43:34.948Z,24.50
2019-06-27T20:46:03.660Z,24.50
2019-06-27T20:48:32.734Z,24.50
2019-06-27T20:51:01.405Z,24.50
2019-06-27T20:53:30.108Z,24.50
2019-06-27T20:55:58.779Z,24.40
2019-06-27T20:58:27.489Z,24.40
2019-06-27T21:00:56.531Z,24.40
2019-06-27T21:03:25.234Z,24.40
2019-06-27T21:05:54.246Z,24.40
2019-06-27T21:08:23.241Z,24.40
2019-06-27T21:10:51.917Z,24.40
2019-06-27T21:13:21.329Z,24.40
2019-06-27T21:15:50.578Z,24.40
2019-06-27T21:18:19.830Z,24.40
2019-06-27T21:20:48.509Z,24.20
2019-06-27T21:23:17.276Z,23.80
2019-06-27T21:25:45.961Z,23.50
2019-06-27T21:28:15.281Z,23.40
2019-06-27T21:30:44.560Z,23.20
2019-06-27T21:33:13.597Z,23.10
2019-06-27T21:35:42.573Z,23.10
2019-06-27T21:38:11.666Z,23.00
2019-06-27T21:40:40.350Z,22.90
2019-06-27T21:43:09.104Z,22.70
2019-06-27T21:45:38.145Z,22.60
2019-06-27T21:48:06.979Z,22.60
2019-06-27T21:50:35.713Z,22.60
2019-06-27T21:53:05.589Z,22.60
2019-06-27T21:55:34.341Z,22.60
2019-06-27T21:58:03.296Z,22.70
2019-06-27T22:00:35.436Z,22.70
2019-06-27T22:03:06.310Z,22.80
2019-06-27T22:05:35.297Z,23.00
2019-06-27T22:08:04.014Z,23.10
2019-06-27T22:10:32.781Z,23.20
2019-06-27T22:13:01.967Z,23.40
2019-06-27T22:15:30.659Z,23.40
2019-06-27T22:18:00.054Z,23.40
2019-06-27T22:20:29.049Z,23.40
2019-06-27T22:22:57.797Z,23.40
2019-06-27T22:25:39.777Z,23.40
2019-06-27T22:27:56.947Z,23.50
2019-06-27T22:30:25.626Z,23.50
2019-06-27T22:32:54.625Z,23.50
2019-06-27T22:35:23.312Z,23.40
2019-06-27T22:38:10.535Z,23.30
2019-06-27T22:40:58.571Z,23.30
2019-06-27T22:43:45.027Z,23.20
2019-06-27T22:46:31.612Z,23.10
2019-06-27T22:48:59.576Z,23.10
2019-06-27T22:51:48.285Z,23.00
2019-06-27T22:54:17.704Z,23.00
2019-06-27T22:56:46.381Z,23.00
2019-06-27T22:59:15.386Z,22.90
2019-06-27T23:01:44.143Z,22.90
2019-06-27T23:04:12.884Z,22.80
2019-06-27T23:06:41.564Z,22.80
2019-06-27T23:09:12.277Z,22.80
2019-06-27T23:11:41.049Z,22.70
2019-06-27T23:14:10.055Z,22.70
2019-06-27T23:16:38.740Z,22.70
2019-06-27T23:19:07.437Z,22.70
2019-06-27T23:21:36.111Z,22.70
2019-06-27T23:24:05.101Z,22.60
2019-06-27T23:26:33.827Z,22.60
2019-06-27T23:29:02.626Z,22.60
2019-06-27T23:31:31.774Z,22.60
2019-06-27T23:34:00.472Z,22.50
2019-06-27T23:36:29.156Z,22.50
2019-06-27T23:38:57.998Z,22.40
2019-06-27T23:41:26.773Z,22.40
2019-06-27T23:43:55.444Z,22.40
2019-06-27T23:46:40.975Z,22.40
2019-06-27T23:49:09.853Z,22.40
2019-06-27T23:51:38.556Z,22.30
2019-06-27T23:54:07.556Z,22.30
2019-06-27T23:56:36.693Z,22.30
2019-06-27T23:59:05.372Z,22.30
